Time;durP1;ratioP1;P1;durP2;ratioP2;P2;SDS_P1;SDS_P2;PMS_P1;PMS_P2;Temp;Humidity;BMP_temperature;BMP_pressure;BME280_temperature;BME280_humidity;BME280_pressure;Samples;Min_cycle;Max_cycle;Signal;HPM_P1;HPM_P2
2022/06/14 12:14:26;;;;;;;;;;;;;;;27.22;100.00;98562.00;5186491;23;19980;-68
2022/06/14 12:17:16;;;;;;;;;;;;;;;27.06;100.00;98559.75;4934059;29;19963;-68
2022/06/14 12:19:46;;;;;;;;;;;;;;;27.05;100.00;98569.63;4911640;29;19951;-68
2022/06/14 12:22:28;;;;;;;;;;;;;;;26.96;100.00;98559.09;4933461;29;19952;-68
2022/06/14 12:27:59;;;;;;;;;;;;;;;27.04;100.00;98551.63;4935912;29;19955;-68
2022/06/14 12:30:29;;;;;;;;;;;;;;;27.06;100.00;98554.00;4936638;29;19981;-68
2022/06/14 12:33:01;;;;;;;;;;;;;;;27.33;100.00;98554.34;4931960;29;19962;-68
2022/06/14 12:35:30;;;;;;;;;;;;;;;27.29;100.00;98561.59;4930381;29;19965;-67
2022/06/14 12:38:01;;;;;;;;;;;;;;;27.22;100.00;98557.06;4935797;29;19950;-67
2022/06/14 12:40:29;;;;;;;;;;;;;;;27.25;100.00;98556.06;4934739;29;20018;-67
2022/06/14 12:43:04;;;;;;;;;;;;;;;27.25;100.00;98558.94;4934079;29;19958;-67
2022/06/14 12:45:31;;;;;;;;;;;;;;;27.29;100.00;98552.97;4934905;29;19978;-66
2022/06/14 12:48:21;;;;;;;;;;;;;;;27.17;100.00;98563.53;4935683;29;19955;-66
2022/06/14 12:50:51;;;;;;;;;;;;;;;27.17;100.00;98554.91;4920596;29;19954;-66
2022/06/14 12:53:30;;;;;;;;;;;;;;;27.15;100.00;98553.84;4935347;29;19954;-67
2022/06/14 12:56:01;;;;;;;;;;;;;;;27.30;100.00;98540.97;4932494;29;19957;-67
2022/06/14 12:58:46;;;;;;;;;;;;;;;27.21;100.00;98548.97;4933770;29;19954;-66
2022/06/14 13:01:14;;;;;;;;;;;;;;;27.46;100.00;98538.81;4934126;29;19973;-67
2022/06/14 13:03:50;;;;;;;;;;;;;;;27.35;100.00;98527.97;4936638;29;19957;-67
2022/06/14 13:06:17;;;;;;;;;;;;;;;27.45;100.00;98526.53;4938664;29;19947;-66
2022/06/14 13:09:00;;;;;;;;;;;;;;;27.60;100.00;98524.34;4935017;29;20299;-66
2022/06/14 13:11:49;;;;;;;;;;;;;;;27.66;100.00;98518.63;4927991;29;19953;-67
2022/06/14 13:14:25;;;;;;;;;;;;;;;27.49;100.00;98509.84;4927892;29;19973;-67
2022/06/14 13:16:58;;;;;;;;;;;;;;;27.47;100.00;98515.31;4901946;29;19981;-67
2022/06/14 13:19:31;;;;;;;;;;;;;;;27.46;100.00;98501.47;4922670;29;19960;-67
2022/06/14 13:22:22;;;;;;;;;;;;;;;27.44;100.00;98504.84;4919891;29;19955;-67
2022/06/14 13:25:08;;;;;;;;;;;;;;;27.53;100.00;98506.78;4912473;29;19973;-67
2022/06/14 13:27:54;;;;;;;;;;;;;;;27.62;100.00;98510.25;4919561;29;19961;-67
2022/06/14 13:30:43;;;;;;;;;;;;;;;27.76;100.00;98502.78;4920372;29;19957;-67
2022/06/14 13:33:23;;;;;;;;;;;;;;;27.69;100.00;98506.91;4918700;29;19947;-67
2022/06/14 13:35:59;;;;;;;;;;;;;;;27.77;100.00;98501.50;4929237;29;20499;-67
2022/06/14 13:38:50;;;;;;;;;;;;;;;27.77;100.00;98498.63;4920354;29;19958;-66
2022/06/14 13:41:40;;;;;;;;;;;;;;;27.80;100.00;98503.34;4918894;29;19960;-66
2022/06/14 13:44:22;;;;;;;;;;;;;;;27.81;100.00;98504.91;4913392;29;19959;-66
2022/06/14 13:46:55;;;;;;;;;;;;;;;27.62;100.00;98490.13;4922953;29;19963;-66
2022/06/14 13:49:22;;;;;;;;;;;;;;;27.69;100.00;98486.00;4920779;29;19959;-62
2022/06/14 13:52:08;;;;;;;;;;;;;;;27.58;100.00;98488.81;4924110;29;19949;-66
2022/06/14 13:54:38;;;;;;;;;;;;;;;27.69;100.00;98494.63;4926680;29;20355;-67
2022/06/14 13:57:08;;;;;;;;;;;;;;;27.71;100.00;98483.41;4921476;29;19962;-66
2022/06/14 13:59:37;;;;;;;;;;;;;;;27.75;100.00;98478.25;4920195;29;19950;-67
2022/06/14 14:02:04;;;;;;;;;;;;;;;27.74;100.00;98468.03;4922627;29;19953;-67
2022/06/14 14:04:49;;;;;;;;;;;;;;;27.82;100.00;98474.91;4920110;29;19950;-66
2022/06/14 14:07:19;;;;;;;;;;;;;;;27.71;100.00;98478.47;4930468;29;20379;-67
2022/06/14 14:09:49;;;;;;;;;;;;;;;27.80;100.00;98468.88;4930381;29;19955;-68
2022/06/14 14:12:23;;;;;;;;;;;;;;;27.79;100.00;98468.09;4919921;29;19944;-67
2022/06/14 14:14:53;;;;;;;;;;;;;;;27.65;100.00;98462.47;4933611;29;19975;-67
2022/06/14 14:17:23;;;;;;;;;;;;;;;27.86;100.00;98473.34;4935072;29;19953;-68
2022/06/14 14:19:59;;;;;;;;;;;;;;;27.57;100.00;98485.13;4933202;29;19952;-68
2022/06/14 14:22:33;;;;;;;;;;;;;;;27.51;100.00;98475.66;4939209;29;19949;-69
2022/06/14 14:25:18;;;;;;;;;;;;;;;27.46;100.00;98485.03;4938887;29;19973;-69
2022/06/14 14:27:59;;;;;;;;;;;;;;;27.51;100.00;98467.03;4937925;29;20211;-67
2022/06/14 14:30:47;;;;;;;;;;;;;;;27.50;100.00;98474.09;4930280;29;19954;-69
2022/06/14 14:33:40;;;;;;;;;;;;;;;27.47;100.00;98475.13;4934929;29;19949;-68
2022/06/14 14:36:31;;;;;;;;;;;;;;;27.51;100.00;98481.41;4935271;29;19962;-67
2022/06/14 14:39:12;;;;;;;;;;;;;;;27.58;100.00;98471.56;4928976;29;19962;-68
2022/06/14 14:42:05;;;;;;;;;;;;;;;27.61;100.00;98473.41;4932780;29;19954;-68
2022/06/14 14:44:35;;;;;;;;;;;;;;;27.59;100.00;98479.66;4916091;29;19947;-68
2022/06/14 14:47:05;;;;;;;;;;;;;;;27.46;100.00;98482.16;4935061;29;19950;-64
2022/06/14 14:49:40;;;;;;;;;;;;;;;27.44;100.00;98472.47;4929440;29;19950;-66
2022/06/14 14:52:25;;;;;;;;;;;;;;;27.45;100.00;98469.09;4927868;29;19949;-66
2022/06/14 14:55:00;;;;;;;;;;;;;;;27.37;100.00;98470.81;4931155;29;19952;-66
2022/06/14 14:57:37;;;;;;;;;;;;;;;27.31;100.00;98465.00;4929136;29;19961;-65
2022/06/14 15:00:17;;;;;;;;;;;;;;;27.22;100.00;98470.13;4932880;29;19950;-64
2022/06/14 15:05:44;;;;;;;;;;;;;;;27.33;100.00;98458.75;4920315;29;19968;-67
2022/06/14 15:08:21;;;;;;;;;;;;;;;27.39;100.00;98468.25;4920508;29;19962;-67
2022/06/14 15:10:54;;;;;;;;;;;;;;;27.49;100.00;98468.84;4904586;29;19948;-67
2022/06/14 15:13:41;;;;;;;;;;;;;;;27.47;100.00;98475.13;4920922;29;20053;-63
2022/06/14 15:16:35;;;;;;;;;;;;;;;27.51;100.00;98464.16;4928924;29;19950;-63
2022/06/14 15:21:59;;;;;;;;;;;;;;;27.58;100.00;98449.38;4919678;29;19952;-62
2022/06/14 15:24:31;;;;;;;;;;;;;;;27.45;100.00;98449.00;4919717;29;19954;-62
2022/06/14 15:27:00;;;;;;;;;;;;;;;27.44;100.00;98453.16;4920263;29;19971;-63
2022/06/14 15:29:30;;;;;;;;;;;;;;;27.51;100.00;98441.19;4920934;29;19947;-65
2022/06/14 15:32:01;;;;;;;;;;;;;;;27.43;100.00;98440.09;4936340;29;19950;-66
2022/06/14 15:34:39;;;;;;;;;;;;;;;27.52;100.00;98437.03;4925470;29;19955;-66
2022/06/14 15:37:13;;;;;;;;;;;;;;;27.45;100.00;98440.38;4934069;29;19953;-66
2022/06/14 15:39:49;;;;;;;;;;;;;;;27.32;100.00;98437.06;4938292;29;19949;-66
2022/06/14 15:42:22;;;;;;;;;;;;;;;27.45;100.00;98446.13;4932901;29;20331;-66
2022/06/14 15:44:52;;;;;;;;;;;;;;;27.32;100.00;98437.88;4935659;29;19949;-66
2022/06/14 15:47:28;;;;;;;;;;;;;;;27.35;100.00;98433.19;4931300;29;19958;-66
2022/06/14 15:49:56;;;;;;;;;;;;;;;27.24;100.00;98439.59;4938697;29;19952;-67
2022/06/14 15:52:29;;;;;;;;;;;;;;;27.32;100.00;98434.19;4933811;29;19952;-65
2022/06/14 15:54:59;;;;;;;;;;;;;;;27.32;100.00;98426.38;4924601;29;19982;-65
2022/06/14 15:57:31;;;;;;;;;;;;;;;27.33;100.00;98418.56;4933418;29;19951;-65
2022/06/14 16:00:04;;;;;;;;;;;;;;;27.21;100.00;98429.16;4936202;29;19956;-65
2022/06/14 16:02:59;;;;;;;;;;;;;;;27.27;100.00;98429.19;4931479;29;19984;-66
2022/06/14 16:05:32;;;;;;;;;;;;;;;27.23;100.00;98431.50;4937824;29;19973;-66
2022/06/14 16:08:01;;;;;;;;;;;;;;;27.13;100.00;98430.91;4943053;29;19954;-66
2022/06/14 16:10:31;;;;;;;;;;;;;;;27.10;100.00;98428.25;4932841;29;19959;-65
2022/06/14 16:13:07;;;;;;;;;;;;;;;27.14;100.00;98420.97;4932092;29;20037;-65
2022/06/14 16:15:37;;;;;;;;;;;;;;;27.18;100.00;98424.44;4939627;29;20497;-66
2022/06/14 16:18:22;;;;;;;;;;;;;;;27.15;100.00;98430.38;4939851;29;19983;-65
2022/06/14 16:20:57;;;;;;;;;;;;;;;27.07;100.00;98429.28;4939842;29;19984;-66
2022/06/14 16:23:25;;;;;;;;;;;;;;;27.01;100.00;98419.81;4953082;29;19947;-67
2022/06/14 16:25:57;;;;;;;;;;;;;;;26.95;100.00;98416.88;4941500;29;20280;-67
2022/06/14 16:28:39;;;;;;;;;;;;;;;27.00;100.00;98421.09;4940842;29;20272;-67
2022/06/14 16:31:09;;;;;;;;;;;;;;;27.00;100.00;98421.88;4942845;29;19958;-66
2022/06/14 16:33:40;;;;;;;;;;;;;;;26.94;100.00;98421.06;4942552;29;19952;-66
2022/06/14 16:36:40;;;;;;;;;;;;;;;26.88;100.00;98414.44;4949821;29;19957;-66
2022/06/14 16:39:16;;;;;;;;;;;;;;;27.04;100.00;98421.69;4900351;29;19948;-66
2022/06/14 16:41:50;;;;;;;;;;;;;;;26.97;100.00;98420.03;4941520;29;19951;-66
2022/06/14 16:44:36;;;;;;;;;;;;;;;26.97;100.00;98420.03;4942775;29;20239;-66
2022/06/14 16:47:08;;;;;;;;;;;;;;;26.78;100.00;98421.66;4941847;29;19975;-67
2022/06/14 16:49:39;;;;;;;;;;;;;;;26.79;100.00;98413.84;4942115;29;19951;-67
2022/06/14 16:52:14;;;;;;;;;;;;;;;26.80;100.00;98409.69;4941484;29;19951;-66
2022/06/14 16:54:44;;;;;;;;;;;;;;;26.87;100.00;98412.09;4942790;29;19953;-67
2022/06/14 16:57:12;;;;;;;;;;;;;;;26.79;100.00;98408.88;4940877;29;20256;-67
2022/06/14 16:59:45;;;;;;;;;;;;;;;26.74;100.00;98410.38;4941307;29;20119;-67
2022/06/14 17:02:22;;;;;;;;;;;;;;;26.69;100.00;98407.44;4941239;29;19964;-67
2022/06/14 17:04:53;;;;;;;;;;;;;;;26.64;100.00;98408.94;4939439;29;19963;-67
2022/06/14 17:07:23;;;;;;;;;;;;;;;26.61;100.00;98409.94;4942313;29;20376;-67
2022/06/14 17:09:59;;;;;;;;;;;;;;;26.60;100.00;98408.41;4941298;29;20329;-71
2022/06/14 17:12:50;;;;;;;;;;;;;;;26.62;100.00;98411.53;4938134;29;19947;-71
2022/06/14 17:15:26;;;;;;;;;;;;;;;26.55;100.00;98411.19;4905940;29;20242;-72
2022/06/14 17:18:07;;;;;;;;;;;;;;;26.58;100.00;98405.22;4924786;29;20246;-72
2022/06/14 17:20:40;;;;;;;;;;;;;;;26.61;100.00;98409.94;4938387;29;19982;-70
2022/06/14 17:23:13;;;;;;;;;;;;;;;26.65;100.00;98410.50;4917625;29;19951;-70
2022/06/14 17:31:29;;;;;;;;;;;;;;;26.40;100.00;98411.28;4942213;29;19951;-71
2022/06/14 17:33:59;;;;;;;;;;;;;;;26.40;100.00;98407.59;4940593;29;19950;-70
2022/06/14 17:36:49;;;;;;;;;;;;;;;26.40;100.00;98410.47;4933278;29;19953;-70
2022/06/14 17:39:19;;;;;;;;;;;;;;;26.36;100.00;98418.50;4937437;29;20221;-71
2022/06/14 17:41:48;;;;;;;;;;;;;;;26.34;100.00;98418.19;4943599;29;19953;-71
2022/06/14 17:44:19;;;;;;;;;;;;;;;26.31;100.00;98420.00;4941050;29;19952;-71
2022/06/14 17:46:47;;;;;;;;;;;;;;;26.27;100.00;98428.03;4940510;29;19964;-77
2022/06/14 17:49:27;;;;;;;;;;;;;;;26.25;100.00;98424.88;4941236;29;19951;-72
2022/06/14 17:52:00;;;;;;;;;;;;;;;26.17;100.00;98431.53;4938877;29;19953;-71
2022/06/14 17:54:38;;;;;;;;;;;;;;;26.12;100.00;98430.16;4939866;29;19981;-71
2022/06/14 17:57:08;;;;;;;;;;;;;;;26.08;100.00;98436.09;4939089;29;19954;-71
2022/06/14 17:59:49;;;;;;;;;;;;;;;26.15;100.00;98437.75;4941219;29;19950;-71
2022/06/14 18:02:35;;;;;;;;;;;;;;;26.02;100.00;98443.00;4937119;29;19955;-71
2022/06/14 18:05:04;;;;;;;;;;;;;;;25.97;100.00;98450.25;4940062;29;19956;-72
2022/06/14 18:07:47;;;;;;;;;;;;;;;25.90;100.00;98447.00;4940397;29;19967;-71
2022/06/14 18:10:24;;;;;;;;;;;;;;;25.84;100.00;98444.06;4934091;29;19950;-71
2022/06/14 18:12:57;;;;;;;;;;;;;;;25.81;100.00;98444.25;4935257;29;20342;-71
2022/06/14 18:15:32;;;;;;;;;;;;;;;25.75;100.00;98441.31;4930252;29;20337;-71
2022/06/14 18:18:14;;;;;;;;;;;;;;;25.71;100.00;98449.31;4933583;29;19951;-72
2022/06/14 18:20:53;;;;;;;;;;;;;;;25.61;100.00;98449.91;4933630;29;19962;-72
2022/06/14 18:23:22;;;;;;;;;;;;;;;25.57;100.00;98452.22;4940240;29;19962;-71
2022/06/14 18:25:52;;;;;;;;;;;;;;;25.56;100.00;98454.28;4940276;29;20330;-71
2022/06/14 18:28:22;;;;;;;;;;;;;;;25.59;100.00;98453.28;4937018;29;20297;-72
2022/06/14 18:30:51;;;;;;;;;;;;;;;25.49;100.00;98451.81;4934565;29;19957;-72
2022/06/14 18:33:20;;;;;;;;;;;;;;;25.55;100.00;98449.06;4932210;29;19953;-72
2022/06/14 18:35:55;;;;;;;;;;;;;;;25.36;100.00;98446.38;4934172;29;19953;-72
2022/06/14 18:38:32;;;;;;;;;;;;;;;25.38;100.00;98452.38;4933429;29;19958;-72
2022/06/14 18:41:18;;;;;;;;;;;;;;;25.36;100.00;98452.09;4935826;29;19958;-72
2022/06/14 18:44:05;;;;;;;;;;;;;;;25.17;100.00;98456.44;4916764;29;19950;-72
2022/06/14 18:46:40;;;;;;;;;;;;;;;25.17;100.00;98458.50;4936503;29;20258;-72
2022/06/14 18:49:27;;;;;;;;;;;;;;;25.12;100.00;98459.97;4931059;29;20219;-72
2022/06/14 18:52:07;;;;;;;;;;;;;;;25.07;100.00;98463.53;4931571;29;19951;-71
2022/06/14 18:55:08;;;;;;;;;;;;;;;25.00;100.00;98452.47;4935312;29;20238;-72
2022/06/14 18:57:56;;;;;;;;;;;;;;;24.91;100.00;98464.00;4881301;29;19951;-72
2022/06/14 19:00:29;;;;;;;;;;;;;;;24.86;100.00;98461.03;4939285;29;20363;-72
2022/06/14 19:03:20;;;;;;;;;;;;;;;24.83;100.00;98459.94;4936302;29;19950;-72
2022/06/14 19:05:50;;;;;;;;;;;;;;;24.78;100.00;98463.47;4927199;29;19953;-71
2022/06/14 19:08:17;;;;;;;;;;;;;;;24.73;100.00;98464.13;4938332;29;19965;-71
2022/06/14 19:10:55;;;;;;;;;;;;;;;24.70;100.00;98454.47;4939590;29;19981;-71
2022/06/14 19:13:22;;;;;;;;;;;;;;;24.65;100.00;98452.28;4939529;29;20051;-71
2022/06/14 19:15:51;;;;;;;;;;;;;;;24.57;100.00;98456.00;4919580;29;19957;-71
2022/06/14 19:18:34;;;;;;;;;;;;;;;24.55;100.00;98455.72;4924926;29;19951;-71
2022/06/14 19:21:29;;;;;;;;;;;;;;;24.47;100.00;98465.94;4920489;29;20388;-71
2022/06/14 19:23:56;;;;;;;;;;;;;;;24.43;100.00;98459.63;4912441;29;19952;-71
2022/06/14 19:26:24;;;;;;;;;;;;;;;24.39;100.00;98462.66;4920898;29;20258;-71
2022/06/14 19:29:09;;;;;;;;;;;;;;;24.35;100.00;98473.50;4920866;29;19956;-71
2022/06/14 19:31:40;;;;;;;;;;;;;;;24.30;100.00;98471.28;4920617;29;20355;-71
2022/06/14 19:34:14;;;;;;;;;;;;;;;24.20;100.00;98469.78;4916337;29;19957;-71
2022/06/14 19:36:50;;;;;;;;;;;;;;;24.25;100.00;98477.69;4915505;29;20248;-71
2022/06/14 19:39:17;;;;;;;;;;;;;;;24.14;100.00;98485.97;4892554;29;19948;-71
2022/06/14 19:41:54;;;;;;;;;;;;;;;24.10;100.00;98483.31;4921291;29;19949;-71
2022/06/14 19:44:40;;;;;;;;;;;;;;;24.05;100.00;98486.00;4907837;29;19959;-71
2022/06/14 19:47:12;;;;;;;;;;;;;;;23.97;100.00;98484.78;4918162;29;20397;-71
2022/06/14 19:52:32;;;;;;;;;;;;;;;23.88;100.00;98496.25;4918624;29;19952;-71
2022/06/14 19:57:49;;;;;;;;;;;;;;;23.77;100.00;98505.34;4919410;29;19957;-71
2022/06/14 20:00:18;;;;;;;;;;;;;;;23.84;100.00;98507.84;4920549;29;19966;-72
2022/06/14 20:02:45;;;;;;;;;;;;;;;23.74;100.00;98508.38;4920038;29;19956;-71
2022/06/14 20:05:13;;;;;;;;;;;;;;;23.76;100.00;98523.75;4919201;29;19951;-71
2022/06/14 20:07:45;;;;;;;;;;;;;;;23.71;100.00;98518.69;4920170;29;19966;-71
2022/06/14 20:10:14;;;;;;;;;;;;;;;23.63;100.00;98530.91;4917441;29;19952;-71
2022/06/14 20:12:46;;;;;;;;;;;;;;;23.65;100.00;98529.16;4920641;29;19958;-71
2022/06/14 20:15:27;;;;;;;;;;;;;;;23.66;100.00;98535.69;4939103;29;19958;-71
2022/06/14 20:17:59;;;;;;;;;;;;;;;23.61;100.00;98539.97;4935680;29;19965;-71
